sensor_id;sensor_type;location;lat;lon;timestamp;P1;durP1;ratioP1;P2;durP2;ratioP2
61640;SDS011;62201;49.966;8.342;2023-05-14T00:02:12;8.85;;;4.50;;
61640;SDS011;62201;49.966;8.342;2023-05-14T00:04:37;9.95;;;4.40;;
61640;SDS011;62201;49.966;8.342;2023-05-14T00:07:02;8.77;;;4.40;;
61640;SDS011;62201;49.966;8.342;2023-05-14T00:09:28;9.25;;;4.30;;
61640;SDS011;62201;49.966;8.342;2023-05-14T00:11:54;13.05;;;4.20;;
61640;SDS011;62201;49.966;8.342;2023-05-14T00:14:19;10.68;;;4.30;;
61640;SDS011;62201;49.966;8.342;2023-05-14T00:16:45;5.40;;;3.88;;
61640;SDS011;62201;49.966;8.342;2023-05-14T00:19:10;13.55;;;4.25;;
61640;SDS011;62201;49.966;8.342;2023-05-14T00:21:36;7.78;;;4.20;;
61640;SDS011;62201;49.966;8.342;2023-05-14T00:24:01;7.28;;;4.57;;
61640;SDS011;62201;49.966;8.342;2023-05-14T00:26:26;12.00;;;4.82;;
61640;SDS011;62201;49.966;8.342;2023-05-14T00:28:52;7.80;;;4.80;;
61640;SDS011;62201;49.966;8.342;2023-05-14T00:31:17;13.60;;;5.30;;
61640;SDS011;62201;49.966;8.342;2023-05-14T00:33:43;7.03;;;4.47;;
61640;SDS011;62201;49.966;8.342;2023-05-14T00:36:08;10.68;;;4.50;;
61640;SDS011;62201;49.966;8.342;2023-05-14T00:38:33;6.28;;;4.07;;
61640;SDS011;62201;49.966;8.342;2023-05-14T00:40:59;6.80;;;4.53;;
61640;SDS011;62201;49.966;8.342;2023-05-14T00:43:24;8.07;;;4.85;;
61640;SDS011;62201;49.966;8.342;2023-05-14T00:45:51;7.60;;;4.65;;
61640;SDS011;62201;49.966;8.342;2023-05-14T00:48:21;6.75;;;4.43;;
61640;SDS011;62201;49.966;8.342;2023-05-14T00:50:47;5.78;;;4.60;;
61640;SDS011;62201;49.966;8.342;2023-05-14T00:53:14;10.15;;;5.00;;
61640;SDS011;62201;49.966;8.342;2023-05-14T00:55:41;8.70;;;4.72;;
61640;SDS011;62201;49.966;8.342;2023-05-14T00:58:08;9.18;;;4.78;;
61640;SDS011;62201;49.966;8.342;2023-05-14T01:00:36;7.80;;;4.90;;
61640;SDS011;62201;49.966;8.342;2023-05-14T01:03:02;11.32;;;4.88;;
61640;SDS011;62201;49.966;8.342;2023-05-14T01:05:32;8.93;;;5.00;;
61640;SDS011;62201;49.966;8.342;2023-05-14T01:11:33;7.30;;;4.88;;
61640;SDS011;62201;49.966;8.342;2023-05-14T01:16:43;9.38;;;5.13;;
61640;SDS011;62201;49.966;8.342;2023-05-14T01:19:14;12.68;;;4.97;;
61640;SDS011;62201;49.966;8.342;2023-05-14T01:21:45;12.25;;;6.00;;
61640;SDS011;62201;49.966;8.342;2023-05-14T01:24:11;10.20;;;5.00;;
61640;SDS011;62201;49.966;8.342;2023-05-14T01:26:36;7.50;;;4.97;;
61640;SDS011;62201;49.966;8.342;2023-05-14T01:29:04;8.38;;;4.63;;
61640;SDS011;62201;49.966;8.342;2023-05-14T01:31:44;6.00;;;4.43;;
61640;SDS011;62201;49.966;8.342;2023-05-14T01:34:11;6.60;;;4.90;;
61640;SDS011;62201;49.966;8.342;2023-05-14T01:36:38;7.55;;;4.80;;
61640;SDS011;62201;49.966;8.342;2023-05-14T01:39:05;8.52;;;5.05;;
61640;SDS011;62201;49.966;8.342;2023-05-14T01:41:36;9.45;;;4.93;;
61640;SDS011;62201;49.966;8.342;2023-05-14T01:44:03;5.55;;;4.80;;
61640;SDS011;62201;49.966;8.342;2023-05-14T01:46:32;10.68;;;5.03;;
61640;SDS011;62201;49.966;8.342;2023-05-14T01:48:58;7.85;;;4.63;;
61640;SDS011;62201;49.966;8.342;2023-05-14T01:51:24;8.02;;;4.80;;
61640;SDS011;62201;49.966;8.342;2023-05-14T01:53:49;11.23;;;5.43;;
61640;SDS011;62201;49.966;8.342;2023-05-14T01:56:15;8.68;;;5.22;;
61640;SDS011;62201;49.966;8.342;2023-05-14T01:58:41;6.78;;;5.25;;
61640;SDS011;62201;49.966;8.342;2023-05-14T02:01:06;11.95;;;5.28;;
61640;SDS011;62201;49.966;8.342;2023-05-14T02:03:31;9.40;;;5.70;;
61640;SDS011;62201;49.966;8.342;2023-05-14T02:05:57;9.00;;;5.60;;
61640;SDS011;62201;49.966;8.342;2023-05-14T02:08:22;13.63;;;5.78;;
61640;SDS011;62201;49.966;8.342;2023-05-14T02:10:48;9.27;;;5.40;;
61640;SDS011;62201;49.966;8.342;2023-05-14T02:13:13;6.78;;;5.53;;
61640;SDS011;62201;49.966;8.342;2023-05-14T02:15:38;11.10;;;5.40;;
61640;SDS011;62201;49.966;8.342;2023-05-14T02:18:04;6.47;;;4.85;;
61640;SDS011;62201;49.966;8.342;2023-05-14T02:20:29;6.85;;;3.92;;
61640;SDS011;62201;49.966;8.342;2023-05-14T02:22:55;8.13;;;5.00;;
61640;SDS011;62201;49.966;8.342;2023-05-14T02:25:20;9.98;;;5.30;;
61640;SDS011;62201;49.966;8.342;2023-05-14T02:27:45;7.07;;;5.13;;
61640;SDS011;62201;49.966;8.342;2023-05-14T02:30:11;8.88;;;5.00;;
61640;SDS011;62201;49.966;8.342;2023-05-14T02:32:36;10.25;;;4.93;;
61640;SDS011;62201;49.966;8.342;2023-05-14T02:35:02;9.30;;;5.22;;
61640;SDS011;62201;49.966;8.342;2023-05-14T02:37:27;8.65;;;5.35;;
61640;SDS011;62201;49.966;8.342;2023-05-14T02:39:53;8.57;;;5.25;;
61640;SDS011;62201;49.966;8.342;2023-05-14T02:42:18;7.18;;;4.90;;
61640;SDS011;62201;49.966;8.342;2023-05-14T02:44:43;6.97;;;5.30;;
61640;SDS011;62201;49.966;8.342;2023-05-14T02:47:09;11.32;;;5.50;;
61640;SDS011;62201;49.966;8.342;2023-05-14T02:49:34;5.97;;;5.20;;
61640;SDS011;62201;49.966;8.342;2023-05-14T02:52:00;9.57;;;5.43;;
61640;SDS011;62201;49.966;8.342;2023-05-14T02:54:25;10.07;;;5.43;;
61640;SDS011;62201;49.966;8.342;2023-05-14T02:56:51;7.75;;;5.13;;
61640;SDS011;62201;49.966;8.342;2023-05-14T02:59:16;7.70;;;5.03;;
61640;SDS011;62201;49.966;8.342;2023-05-14T03:01:41;8.73;;;5.50;;
61640;SDS011;62201;49.966;8.342;2023-05-14T03:04:07;8.50;;;5.47;;
61640;SDS011;62201;49.966;8.342;2023-05-14T03:06:32;5.68;;;4.68;;
61640;SDS011;62201;49.966;8.342;2023-05-14T03:08:58;8.13;;;4.88;;
61640;SDS011;62201;49.966;8.342;2023-05-14T03:11:23;11.65;;;4.55;;
61640;SDS011;62201;49.966;8.342;2023-05-14T03:13:49;6.22;;;5.18;;
61640;SDS011;62201;49.966;8.342;2023-05-14T03:16:14;7.82;;;4.40;;
61640;SDS011;62201;49.966;8.342;2023-05-14T03:18:39;6.85;;;4.40;;
61640;SDS011;62201;49.966;8.342;2023-05-14T03:21:05;7.60;;;4.60;;
61640;SDS011;62201;49.966;8.342;2023-05-14T03:23:30;6.07;;;4.97;;
61640;SDS011;62201;49.966;8.342;2023-05-14T03:25:58;6.22;;;4.82;;
61640;SDS011;62201;49.966;8.342;2023-05-14T03:28:24;8.18;;;4.95;;
61640;SDS011;62201;49.966;8.342;2023-05-14T03:30:49;6.82;;;4.70;;
61640;SDS011;62201;49.966;8.342;2023-05-14T03:33:15;5.93;;;4.65;;
61640;SDS011;62201;49.966;8.342;2023-05-14T03:35:40;6.85;;;4.50;;
61640;SDS011;62201;49.966;8.342;2023-05-14T03:38:06;6.07;;;4.30;;
61640;SDS011;62201;49.966;8.342;2023-05-14T03:40:31;8.32;;;4.85;;
61640;SDS011;62201;49.966;8.342;2023-05-14T03:42:57;4.53;;;4.07;;
61640;SDS011;62201;49.966;8.342;2023-05-14T03:45:22;6.32;;;4.65;;
61640;SDS011;62201;49.966;8.342;2023-05-14T03:47:48;11.32;;;4.50;;
61640;SDS011;62201;49.966;8.342;2023-05-14T03:50:13;6.88;;;4.22;;
61640;SDS011;62201;49.966;8.342;2023-05-14T03:52:38;7.28;;;4.20;;
61640;SDS011;62201;49.966;8.342;2023-05-14T03:55:04;5.68;;;3.95;;
61640;SDS011;62201;49.966;8.342;2023-05-14T03:57:30;7.13;;;4.72;;
61640;SDS011;62201;49.966;8.342;2023-05-14T03:59:55;8.80;;;5.00;;
61640;SDS011;62201;49.966;8.342;2023-05-14T04:02:21;7.60;;;4.70;;
61640;SDS011;62201;49.966;8.342;2023-05-14T04:04:46;6.07;;;4.82;;
61640;SDS011;62201;49.966;8.342;2023-05-14T04:07:11;5.57;;;4.72;;
61640;SDS011;62201;49.966;8.342;2023-05-14T04:09:37;5.60;;;4.43;;
61640;SDS011;62201;49.966;8.342;2023-05-14T04:12:02;6.57;;;4.60;;
61640;SDS011;62201;49.966;8.342;2023-05-14T04:14:28;9.75;;;4.63;;
61640;SDS011;62201;49.966;8.342;2023-05-14T04:16:54;9.43;;;5.15;;
61640;SDS011;62201;49.966;8.342;2023-05-14T04:19:19;6.47;;;4.80;;
61640;SDS011;62201;49.966;8.342;2023-05-14T04:21:44;8.10;;;4.80;;
61640;SDS011;62201;49.966;8.342;2023-05-14T04:24:10;6.88;;;4.80;;
61640;SDS011;62201;49.966;8.342;2023-05-14T04:26:35;8.40;;;5.20;;
61640;SDS011;62201;49.966;8.342;2023-05-14T04:29:00;8.93;;;4.80;;
61640;SDS011;62201;49.966;8.342;2023-05-14T04:31:27;5.78;;;4.82;;
61640;SDS011;62201;49.966;8.342;2023-05-14T04:33:53;12.30;;;4.85;;
61640;SDS011;62201;49.966;8.342;2023-05-14T04:36:18;8.18;;;5.00;;
61640;SDS011;62201;49.966;8.342;2023-05-14T04:38:44;5.70;;;4.97;;
61640;SDS011;62201;49.966;8.342;2023-05-14T04:41:09;10.05;;;5.10;;
61640;SDS011;62201;49.966;8.342;2023-05-14T04:43:35;6.07;;;4.78;;
61640;SDS011;62201;49.966;8.342;2023-05-14T04:46:00;6.65;;;4.40;;
61640;SDS011;62201;49.966;8.342;2023-05-14T04:48:26;8.20;;;4.68;;
61640;SDS011;62201;49.966;8.342;2023-05-14T04:50:51;7.50;;;4.75;;
61640;SDS011;62201;49.966;8.342;2023-05-14T04:53:17;7.47;;;4.88;;
61640;SDS011;62201;49.966;8.342;2023-05-14T04:55:42;9.15;;;4.80;;
61640;SDS011;62201;49.966;8.342;2023-05-14T04:58:08;6.90;;;4.53;;
61640;SDS011;62201;49.966;8.342;2023-05-14T05:00:33;8.45;;;4.72;;
61640;SDS011;62201;49.966;8.342;2023-05-14T05:02:58;7.43;;;4.68;;
61640;SDS011;62201;49.966;8.342;2023-05-14T05:05:24;7.20;;;4.55;;
61640;SDS011;62201;49.966;8.342;2023-05-14T05:07:49;6.85;;;4.32;;
61640;SDS011;62201;49.966;8.342;2023-05-14T05:10:15;6.13;;;4.35;;
61640;SDS011;62201;49.966;8.342;2023-05-14T05:12:40;7.85;;;4.45;;
61640;SDS011;62201;49.966;8.342;2023-05-14T05:15:06;6.53;;;4.10;;
61640;SDS011;62201;49.966;8.342;2023-05-14T05:17:33;7.55;;;4.10;;
61640;SDS011;62201;49.966;8.342;2023-05-14T05:19:58;6.35;;;3.60;;
61640;SDS011;62201;49.966;8.342;2023-05-14T05:22:24;7.65;;;3.58;;
61640;SDS011;62201;49.966;8.342;2023-05-14T05:24:49;3.83;;;3.40;;
61640;SDS011;62201;49.966;8.342;2023-05-14T05:27:15;4.95;;;3.42;;
61640;SDS011;62201;49.966;8.342;2023-05-14T05:29:40;4.82;;;3.80;;
61640;SDS011;62201;49.966;8.342;2023-05-14T05:32:06;4.97;;;3.50;;
61640;SDS011;62201;49.966;8.342;2023-05-14T05:34:31;7.15;;;3.20;;
61640;SDS011;62201;49.966;8.342;2023-05-14T05:36:58;5.20;;;3.10;;
61640;SDS011;62201;49.966;8.342;2023-05-14T05:39:23;10.25;;;3.28;;
61640;SDS011;62201;49.966;8.342;2023-05-14T05:41:49;7.57;;;3.13;;
61640;SDS011;62201;49.966;8.342;2023-05-14T05:44:14;5.63;;;3.17;;
61640;SDS011;62201;49.966;8.342;2023-05-14T05:46:39;4.50;;;3.58;;
61640;SDS011;62201;49.966;8.342;2023-05-14T05:49:05;5.95;;;3.25;;
61640;SDS011;62201;49.966;8.342;2023-05-14T05:51:30;6.28;;;3.67;;
61640;SDS011;62201;49.966;8.342;2023-05-14T05:53:57;6.18;;;3.75;;
61640;SDS011;62201;49.966;8.342;2023-05-14T05:56:22;8.25;;;4.07;;
61640;SDS011;62201;49.966;8.342;2023-05-14T05:58:47;5.32;;;3.75;;
61640;SDS011;62201;49.966;8.342;2023-05-14T06:01:13;5.57;;;3.75;;
61640;SDS011;62201;49.966;8.342;2023-05-14T06:03:38;5.82;;;4.63;;
61640;SDS011;62201;49.966;8.342;2023-05-14T06:06:04;6.32;;;3.85;;
61640;SDS011;62201;49.966;8.342;2023-05-14T06:08:30;4.63;;;4.20;;
61640;SDS011;62201;49.966;8.342;2023-05-14T06:10:56;5.60;;;4.25;;
61640;SDS011;62201;49.966;8.342;2023-05-14T06:13:21;6.22;;;4.47;;
61640;SDS011;62201;49.966;8.342;2023-05-14T06:15:47;5.88;;;4.45;;
61640;SDS011;62201;49.966;8.342;2023-05-14T06:18:12;7.72;;;4.50;;
61640;SDS011;62201;49.966;8.342;2023-05-14T06:20:37;6.10;;;4.03;;
61640;SDS011;62201;49.966;8.342;2023-05-14T06:23:03;5.00;;;4.50;;
61640;SDS011;62201;49.966;8.342;2023-05-14T06:25:29;7.13;;;4.28;;
61640;SDS011;62201;49.966;8.342;2023-05-14T06:27:55;4.35;;;3.95;;
61640;SDS011;62201;49.966;8.342;2023-05-14T06:30:20;6.13;;;4.88;;
61640;SDS011;62201;49.966;8.342;2023-05-14T06:32:46;5.32;;;4.03;;
61640;SDS011;62201;49.966;8.342;2023-05-14T06:35:11;5.65;;;3.75;;
61640;SDS011;62201;49.966;8.342;2023-05-14T06:37:36;6.20;;;3.70;;
61640;SDS011;62201;49.966;8.342;2023-05-14T06:40:02;5.50;;;4.00;;
61640;SDS011;62201;49.966;8.342;2023-05-14T06:42:29;4.72;;;3.75;;
61640;SDS011;62201;49.966;8.342;2023-05-14T06:44:54;4.30;;;3.67;;
61640;SDS011;62201;49.966;8.342;2023-05-14T06:47:20;6.47;;;3.90;;
61640;SDS011;62201;49.966;8.342;2023-05-14T06:49:46;3.80;;;3.50;;
61640;SDS011;62201;49.966;8.342;2023-05-14T06:52:11;3.97;;;3.50;;
61640;SDS011;62201;49.966;8.342;2023-05-14T06:54:37;6.18;;;3.80;;
61640;SDS011;62201;49.966;8.342;2023-05-14T06:57:03;4.20;;;3.35;;
61640;SDS011;62201;49.966;8.342;2023-05-14T06:59:28;6.00;;;3.45;;
61640;SDS011;62201;49.966;8.342;2023-05-14T07:01:54;6.82;;;3.13;;
61640;SDS011;62201;49.966;8.342;2023-05-14T07:04:19;4.38;;;3.63;;
61640;SDS011;62201;49.966;8.342;2023-05-14T07:06:45;5.18;;;3.15;;
61640;SDS011;62201;49.966;8.342;2023-05-14T07:09:10;3.80;;;3.03;;
61640;SDS011;62201;49.966;8.342;2023-05-14T07:11:36;3.10;;;2.80;;
61640;SDS011;62201;49.966;8.342;2023-05-14T07:14:01;3.10;;;2.80;;
61640;SDS011;62201;49.966;8.342;2023-05-14T07:16:26;2.95;;;2.70;;
61640;SDS011;62201;49.966;8.342;2023-05-14T07:18:52;3.17;;;2.83;;
61640;SDS011;62201;49.966;8.342;2023-05-14T07:21:18;3.60;;;2.83;;
61640;SDS011;62201;49.966;8.342;2023-05-14T07:23:43;6.80;;;2.88;;
61640;SDS011;62201;49.966;8.342;2023-05-14T07:26:08;5.03;;;2.90;;
61640;SDS011;62201;49.966;8.342;2023-05-14T07:28:34;7.25;;;3.08;;
61640;SDS011;62201;49.966;8.342;2023-05-14T07:30:59;3.70;;;3.28;;
61640;SDS011;62201;49.966;8.342;2023-05-14T07:33:33;3.20;;;2.88;;
61640;SDS011;62201;49.966;8.342;2023-05-14T07:36:00;4.03;;;2.90;;
61640;SDS011;62201;49.966;8.342;2023-05-14T07:38:25;3.38;;;2.70;;
61640;SDS011;62201;49.966;8.342;2023-05-14T07:40:50;3.40;;;2.78;;
61640;SDS011;62201;49.966;8.342;2023-05-14T07:43:16;4.22;;;3.13;;
61640;SDS011;62201;49.966;8.342;2023-05-14T07:45:41;3.53;;;2.75;;
61640;SDS011;62201;49.966;8.342;2023-05-14T07:48:18;3.67;;;3.03;;
61640;SDS011;62201;49.966;8.342;2023-05-14T07:50:44;6.68;;;2.88;;
61640;SDS011;62201;49.966;8.342;2023-05-14T07:53:10;5.63;;;3.00;;
61640;SDS011;62201;49.966;8.342;2023-05-14T07:55:35;5.57;;;2.85;;
61640;SDS011;62201;49.966;8.342;2023-05-14T07:58:01;2.97;;;2.60;;
61640;SDS011;62201;49.966;8.342;2023-05-14T08:00:26;5.80;;;2.80;;
61640;SDS011;62201;49.966;8.342;2023-05-14T08:03:02;3.10;;;2.78;;
61640;SDS011;62201;49.966;8.342;2023-05-14T08:05:28;3.72;;;3.00;;
61640;SDS011;62201;49.966;8.342;2023-05-14T08:07:54;3.30;;;2.80;;
61640;SDS011;62201;49.966;8.342;2023-05-14T08:10:19;5.20;;;3.03;;
61640;SDS011;62201;49.966;8.342;2023-05-14T08:12:48;5.20;;;2.80;;
61640;SDS011;62201;49.966;8.342;2023-05-14T08:15:15;3.95;;;2.67;;
61640;SDS011;62201;49.966;8.342;2023-05-14T08:17:49;4.03;;;2.80;;
61640;SDS011;62201;49.966;8.342;2023-05-14T08:20:19;3.47;;;2.40;;
61640;SDS011;62201;49.966;8.342;2023-05-14T08:22:51;3.15;;;2.83;;
61640;SDS011;62201;49.966;8.342;2023-05-14T08:25:22;4.13;;;2.75;;
61640;SDS011;62201;49.966;8.342;2023-05-14T08:27:48;3.67;;;2.50;;
61640;SDS011;62201;49.966;8.342;2023-05-14T08:30:14;4.40;;;2.47;;
61640;SDS011;62201;49.966;8.342;2023-05-14T08:32:43;3.88;;;2.65;;
61640;SDS011;62201;49.966;8.342;2023-05-14T08:35:08;3.00;;;2.70;;
61640;SDS011;62201;49.966;8.342;2023-05-14T08:37:34;2.70;;;2.45;;
61640;SDS011;62201;49.966;8.342;2023-05-14T08:39:59;3.58;;;2.60;;
61640;SDS011;62201;49.966;8.342;2023-05-14T08:42:25;4.15;;;2.40;;
61640;SDS011;62201;49.966;8.342;2023-05-14T08:44:55;2.88;;;2.55;;
61640;SDS011;62201;49.966;8.342;2023-05-14T08:47:24;4.93;;;2.70;;
61640;SDS011;62201;49.966;8.342;2023-05-14T08:50:04;5.32;;;2.55;;
61640;SDS011;62201;49.966;8.342;2023-05-14T08:54:59;3.78;;;2.80;;
61640;SDS011;62201;49.966;8.342;2023-05-14T08:57:27;4.45;;;2.70;;
61640;SDS011;62201;49.966;8.342;2023-05-14T09:00:01;3.25;;;2.60;;
61640;SDS011;62201;49.966;8.342;2023-05-14T09:02:36;2.88;;;2.30;;
61640;SDS011;62201;49.966;8.342;2023-05-14T09:05:04;4.68;;;2.33;;
61640;SDS011;62201;49.966;8.342;2023-05-14T09:07:31;2.72;;;2.15;;
61640;SDS011;62201;49.966;8.342;2023-05-14T09:09:57;2.50;;;2.22;;
61640;SDS011;62201;49.966;8.342;2023-05-14T09:12:44;2.53;;;2.15;;
61640;SDS011;62201;49.966;8.342;2023-05-14T09:15:11;1.98;;;1.80;;
61640;SDS011;62201;49.966;8.342;2023-05-14T09:17:43;2.50;;;1.80;;
61640;SDS011;62201;49.966;8.342;2023-05-14T09:20:15;2.53;;;2.28;;
61640;SDS011;62201;49.966;8.342;2023-05-14T09:22:41;4.90;;;2.08;;
61640;SDS011;62201;49.966;8.342;2023-05-14T09:25:07;2.53;;;2.00;;
61640;SDS011;62201;49.966;8.342;2023-05-14T09:27:38;2.15;;;1.95;;
61640;SDS011;62201;49.966;8.342;2023-05-14T09:30:06;2.65;;;2.22;;
61640;SDS011;62201;49.966;8.342;2023-05-14T09:32:39;2.08;;;1.92;;
61640;SDS011;62201;49.966;8.342;2023-05-14T09:37:44;3.05;;;2.10;;
61640;SDS011;62201;49.966;8.342;2023-05-14T09:40:11;4.10;;;2.13;;
61640;SDS011;62201;49.966;8.342;2023-05-14T09:42:37;4.03;;;2.20;;
61640;SDS011;62201;49.966;8.342;2023-05-14T09:45:03;6.65;;;2.28;;
61640;SDS011;62201;49.966;8.342;2023-05-14T09:47:30;2.88;;;2.33;;
61640;SDS011;62201;49.966;8.342;2023-05-14T09:49:56;3.10;;;2.40;;
61640;SDS011;62201;49.966;8.342;2023-05-14T09:52:22;7.30;;;2.85;;
61640;SDS011;62201;49.966;8.342;2023-05-14T09:54:49;3.63;;;2.30;;
61640;SDS011;62201;49.966;8.342;2023-05-14T09:57:16;2.40;;;2.20;;
61640;SDS011;62201;49.966;8.342;2023-05-14T09:59:41;2.88;;;2.45;;
61640;SDS011;62201;49.966;8.342;2023-05-14T10:02:09;5.07;;;2.25;;
61640;SDS011;62201;49.966;8.342;2023-05-14T10:04:50;5.10;;;2.38;;
61640;SDS011;62201;49.966;8.342;2023-05-14T10:07:17;2.75;;;2.10;;
61640;SDS011;62201;49.966;8.342;2023-05-14T10:09:48;6.50;;;2.50;;
61640;SDS011;62201;49.966;8.342;2023-05-14T10:12:18;3.35;;;2.40;;
61640;SDS011;62201;49.966;8.342;2023-05-14T10:14:46;2.40;;;2.20;;
61640;SDS011;62201;49.966;8.342;2023-05-14T10:17:14;3.40;;;2.30;;
61640;SDS011;62201;49.966;8.342;2023-05-14T10:19:44;3.33;;;2.42;;
61640;SDS011;62201;49.966;8.342;2023-05-14T10:22:14;4.43;;;2.33;;
61640;SDS011;62201;49.966;8.342;2023-05-14T10:24:42;2.67;;;2.35;;
61640;SDS011;62201;49.966;8.342;2023-05-14T10:27:09;4.10;;;2.35;;
61640;SDS011;62201;49.966;8.342;2023-05-14T10:29:36;2.30;;;2.10;;
61640;SDS011;62201;49.966;8.342;2023-05-14T10:32:08;4.45;;;2.30;;
61640;SDS011;62201;49.966;8.342;2023-05-14T10:34:38;3.50;;;2.28;;
61640;SDS011;62201;49.966;8.342;2023-05-14T10:37:09;2.80;;;2.50;;
61640;SDS011;62201;49.966;8.342;2023-05-14T10:39:43;3.05;;;2.40;;
61640;SDS011;62201;49.966;8.342;2023-05-14T10:42:17;4.10;;;1.95;;
61640;SDS011;62201;49.966;8.342;2023-05-14T10:44:47;3.45;;;2.42;;
61640;SDS011;62201;49.966;8.342;2023-05-14T10:47:18;4.50;;;2.13;;
61640;SDS011;62201;49.966;8.342;2023-05-14T10:49:44;2.78;;;2.17;;
61640;SDS011;62201;49.966;8.342;2023-05-14T10:52:14;3.00;;;1.75;;
61640;SDS011;62201;49.966;8.342;2023-05-14T10:54:55;3.67;;;2.00;;
61640;SDS011;62201;49.966;8.342;2023-05-14T10:57:23;2.75;;;1.70;;
61640;SDS011;62201;49.966;8.342;2023-05-14T10:59:57;3.45;;;1.80;;
61640;SDS011;62201;49.966;8.342;2023-05-14T11:02:27;2.80;;;2.17;;
61640;SDS011;62201;49.966;8.342;2023-05-14T11:04:55;2.42;;;2.00;;
61640;SDS011;62201;49.966;8.342;2023-05-14T11:07:24;5.28;;;2.20;;
61640;SDS011;62201;49.966;8.342;2023-05-14T11:09:52;4.82;;;2.00;;
61640;SDS011;62201;49.966;8.342;2023-05-14T11:12:22;3.15;;;1.88;;
61640;SDS011;62201;49.966;8.342;2023-05-14T11:14:48;3.08;;;2.05;;
61640;SDS011;62201;49.966;8.342;2023-05-14T11:17:14;1.90;;;1.70;;
61640;SDS011;62201;49.966;8.342;2023-05-14T11:19:41;1.60;;;1.50;;
61640;SDS011;62201;49.966;8.342;2023-05-14T11:22:08;2.15;;;1.73;;
61640;SDS011;62201;49.966;8.342;2023-05-14T11:24:34;2.45;;;1.55;;
61640;SDS011;62201;49.966;8.342;2023-05-14T11:26:59;1.38;;;1.27;;
61640;SDS011;62201;49.966;8.342;2023-05-14T11:29:25;3.08;;;1.50;;
61640;SDS011;62201;49.966;8.342;2023-05-14T11:31:50;2.45;;;1.42;;
61640;SDS011;62201;49.966;8.342;2023-05-14T11:34:16;4.35;;;1.38;;
61640;SDS011;62201;49.966;8.342;2023-05-14T11:36:41;2.53;;;1.60;;
61640;SDS011;62201;49.966;8.342;2023-05-14T11:39:06;2.53;;;1.40;;
61640;SDS011;62201;49.966;8.342;2023-05-14T11:41:32;3.75;;;1.40;;
61640;SDS011;62201;49.966;8.342;2023-05-14T11:43:57;3.15;;;1.30;;
61640;SDS011;62201;49.966;8.342;2023-05-14T11:46:23;3.58;;;1.70;;
61640;SDS011;62201;49.966;8.342;2023-05-14T11:48:50;1.40;;;1.30;;
61640;SDS011;62201;49.966;8.342;2023-05-14T11:51:15;1.75;;;1.48;;
61640;SDS011;62201;49.966;8.342;2023-05-14T11:53:40;1.52;;;1.42;;
61640;SDS011;62201;49.966;8.342;2023-05-14T11:56:06;1.90;;;1.60;;
61640;SDS011;62201;49.966;8.342;2023-05-14T11:58:31;1.50;;;1.40;;
61640;SDS011;62201;49.966;8.342;2023-05-14T12:00:57;3.80;;;1.38;;
61640;SDS011;62201;49.966;8.342;2023-05-14T12:03:23;4.13;;;1.52;;
61640;SDS011;62201;49.966;8.342;2023-05-14T12:06:00;2.17;;;1.60;;
61640;SDS011;62201;49.966;8.342;2023-05-14T12:08:27;4.85;;;1.67;;
61640;SDS011;62201;49.966;8.342;2023-05-14T12:10:54;2.10;;;1.52;;
61640;SDS011;62201;49.966;8.342;2023-05-14T12:13:20;2.72;;;1.40;;
61640;SDS011;62201;49.966;8.342;2023-05-14T12:15:47;2.30;;;1.42;;
61640;SDS011;62201;49.966;8.342;2023-05-14T12:20:47;1.48;;;1.38;;
61640;SDS011;62201;49.966;8.342;2023-05-14T12:23:13;2.17;;;1.33;;
61640;SDS011;62201;49.966;8.342;2023-05-14T12:25:39;2.00;;;1.60;;
61640;SDS011;62201;49.966;8.342;2023-05-14T12:28:16;2.10;;;1.50;;
61640;SDS011;62201;49.966;8.342;2023-05-14T12:30:42;2.95;;;1.50;;
61640;SDS011;62201;49.966;8.342;2023-05-14T12:33:08;2.35;;;1.45;;
61640;SDS011;62201;49.966;8.342;2023-05-14T12:35:33;1.70;;;1.50;;
61640;SDS011;62201;49.966;8.342;2023-05-14T12:38:00;1.52;;;1.33;;
61640;SDS011;62201;49.966;8.342;2023-05-14T12:40:26;1.80;;;1.35;;
61640;SDS011;62201;49.966;8.342;2023-05-14T12:42:52;2.17;;;1.40;;
61640;SDS011;62201;49.966;8.342;2023-05-14T12:45:17;1.50;;;1.40;;
61640;SDS011;62201;49.966;8.342;2023-05-14T12:47:42;1.55;;;1.40;;
61640;SDS011;62201;49.966;8.342;2023-05-14T12:50:08;2.00;;;1.50;;
61640;SDS011;62201;49.966;8.342;2023-05-14T12:52:33;4.63;;;1.38;;
61640;SDS011;62201;49.966;8.342;2023-05-14T12:54:59;1.77;;;1.30;;
61640;SDS011;62201;49.966;8.342;2023-05-14T12:57:25;2.72;;;1.50;;
61640;SDS011;62201;49.966;8.342;2023-05-14T12:59:51;2.03;;;1.40;;
61640;SDS011;62201;49.966;8.342;2023-05-14T13:02:17;1.08;;;1.00;;
61640;SDS011;62201;49.966;8.342;2023-05-14T13:04:42;3.85;;;1.40;;
61640;SDS011;62201;49.966;8.342;2023-05-14T13:07:08;1.55;;;1.42;;
61640;SDS011;62201;49.966;8.342;2023-05-14T13:09:34;1.30;;;1.20;;
61640;SDS011;62201;49.966;8.342;2023-05-14T13:11:59;2.22;;;1.30;;
61640;SDS011;62201;49.966;8.342;2023-05-14T13:14:24;2.15;;;1.50;;
61640;SDS011;62201;49.966;8.342;2023-05-14T13:16:50;2.15;;;1.50;;
61640;SDS011;62201;49.966;8.342;2023-05-14T13:19:15;1.65;;;1.50;;
61640;SDS011;62201;49.966;8.342;2023-05-14T13:21:41;2.25;;;1.70;;
61640;SDS011;62201;49.966;8.342;2023-05-14T13:24:07;1.65;;;1.55;;
61640;SDS011;62201;49.966;8.342;2023-05-14T13:26:34;3.70;;;1.40;;
61640;SDS011;62201;49.966;8.342;2023-05-14T13:29:00;1.58;;;1.48;;
61640;SDS011;62201;49.966;8.342;2023-05-14T13:31:26;1.25;;;1.13;;
61640;SDS011;62201;49.966;8.342;2023-05-14T13:33:51;1.42;;;1.33;;
61640;SDS011;62201;49.966;8.342;2023-05-14T13:36:17;10.38;;;9.48;;
61640;SDS011;62201;49.966;8.342;2023-05-14T13:38:42;9.18;;;8.35;;
61640;SDS011;62201;49.966;8.342;2023-05-14T13:41:09;2.97;;;2.40;;
61640;SDS011;62201;49.966;8.342;2023-05-14T13:43:35;1.65;;;1.50;;
61640;SDS011;62201;49.966;8.342;2023-05-14T13:46:01;2.17;;;1.30;;
61640;SDS011;62201;49.966;8.342;2023-05-14T13:48:28;4.95;;;1.60;;
61640;SDS011;62201;49.966;8.342;2023-05-14T13:50:54;2.60;;;1.60;;
61640;SDS011;62201;49.966;8.342;2023-05-14T13:53:21;1.90;;;1.65;;
61640;SDS011;62201;49.966;8.342;2023-05-14T13:55:47;3.28;;;1.30;;
61640;SDS011;62201;49.966;8.342;2023-05-14T13:58:13;1.60;;;1.20;;
61640;SDS011;62201;49.966;8.342;2023-05-14T14:00:38;1.48;;;1.38;;
61640;SDS011;62201;49.966;8.342;2023-05-14T14:03:04;3.28;;;2.97;;
61640;SDS011;62201;49.966;8.342;2023-05-14T14:05:30;2.30;;;1.88;;
61640;SDS011;62201;49.966;8.342;2023-05-14T14:07:56;4.70;;;3.00;;
61640;SDS011;62201;49.966;8.342;2023-05-14T14:10:21;1.73;;;1.48;;
61640;SDS011;62201;49.966;8.342;2023-05-14T14:12:47;3.00;;;1.38;;
61640;SDS011;62201;49.966;8.342;2023-05-14T14:15:13;3.03;;;1.40;;
61640;SDS011;62201;49.966;8.342;2023-05-14T14:17:39;1.55;;;1.20;;
61640;SDS011;62201;49.966;8.342;2023-05-14T14:20:07;3.75;;;1.50;;
61640;SDS011;62201;49.966;8.342;2023-05-14T14:22:33;1.67;;;1.58;;
61640;SDS011;62201;49.966;8.342;2023-05-14T14:24:59;1.80;;;1.50;;
61640;SDS011;62201;49.966;8.342;2023-05-14T14:27:24;1.45;;;1.35;;
61640;SDS011;62201;49.966;8.342;2023-05-14T14:29:50;1.75;;;1.40;;
61640;SDS011;62201;49.966;8.342;2023-05-14T14:32:15;3.65;;;1.30;;
61640;SDS011;62201;49.966;8.342;2023-05-14T14:34:40;5.88;;;3.80;;
61640;SDS011;62201;49.966;8.342;2023-05-14T14:37:06;1.60;;;1.50;;
61640;SDS011;62201;49.966;8.342;2023-05-14T14:39:31;1.38;;;1.27;;
61640;SDS011;62201;49.966;8.342;2023-05-14T14:41:57;2.90;;;1.27;;
61640;SDS011;62201;49.966;8.342;2023-05-14T14:44:22;3.65;;;1.50;;
61640;SDS011;62201;49.966;8.342;2023-05-14T14:46:47;5.22;;;4.45;;
61640;SDS011;62201;49.966;8.342;2023-05-14T14:49:13;3.75;;;2.03;;
61640;SDS011;62201;49.966;8.342;2023-05-14T14:51:38;2.58;;;1.80;;
61640;SDS011;62201;49.966;8.342;2023-05-14T14:54:04;1.60;;;1.50;;
61640;SDS011;62201;49.966;8.342;2023-05-14T14:56:30;1.83;;;1.30;;
61640;SDS011;62201;49.966;8.342;2023-05-14T14:58:56;3.17;;;1.20;;